createdAt,value
2023-03-03T00:00:38.540Z,91.50
2023-03-03T00:02:43.992Z,91.30
2023-03-03T00:04:48.901Z,90.70
2023-03-03T00:06:53.867Z,91.40
2023-03-03T00:08:59.123Z,91.10
2023-03-03T00:11:06.210Z,90.80
2023-03-03T00:13:19.213Z,90.30
2023-03-03T00:15:27.141Z,91.50
2023-03-03T00:17:36.525Z,91.70
2023-03-03T00:19:47.362Z,91.70
2023-03-03T00:21:53.830Z,91.20
2023-03-03T00:24:23.821Z,91.60
2023-03-03T00:26:37.405Z,92.00
2023-03-03T00:28:49.151Z,91.90
2023-03-03T00:30:55.511Z,92.10
2023-03-03T00:33:02.979Z,91.80
2023-03-03T00:35:28.819Z,91.50
2023-03-03T00:37:37.605Z,91.70
2023-03-03T00:39:42.622Z,92.10
2023-03-03T00:41:48.345Z,92.40
2023-03-03T00:43:54.628Z,92.40
2023-03-03T00:46:01.015Z,92.10
2023-03-03T00:48:29.634Z,91.60
2023-03-03T00:50:37.663Z,91.40
2023-03-03T00:52:47.949Z,91.10
2023-03-03T00:54:52.876Z,91.20
2023-03-03T00:56:57.781Z,91.40
2023-03-03T00:59:03.214Z,91.30
2023-03-03T01:01:08.792Z,91.60
2023-03-03T01:03:26.613Z,91.90
2023-03-03T01:05:32.534Z,91.80
2023-03-03T01:07:37.776Z,92.40
2023-03-03T01:09:42.981Z,91.70
2023-03-03T01:11:47.908Z,91.20
2023-03-03T01:13:55.270Z,90.60
2023-03-03T01:16:00.868Z,89.70
2023-03-03T01:18:06.882Z,90.50
2023-03-03T01:20:18.229Z,90.90
2023-03-03T01:22:23.416Z,90.50
2023-03-03T01:24:28.694Z,91.20
2023-03-03T01:26:33.591Z,91.30
2023-03-03T01:28:39.388Z,90.90
2023-03-03T01:30:44.325Z,91.20
2023-03-03T01:32:50.992Z,91.40
2023-03-03T01:34:57.417Z,91.60
2023-03-03T01:37:08.549Z,91.60
2023-03-03T01:39:14.445Z,92.00
2023-03-03T01:41:20.262Z,91.50
2023-03-03T01:43:26.635Z,92.20
2023-03-03T01:45:34.230Z,92.90
2023-03-03T01:47:40.007Z,92.50
2023-03-03T01:49:52.443Z,92.40
2023-03-03T01:52:01.131Z,92.30
2023-03-03T01:54:15.154Z,92.30
2023-03-03T01:56:21.026Z,91.30
2023-03-03T01:58:31.955Z,91.30
2023-03-03T02:00:39.426Z,91.20
2023-03-03T02:02:45.872Z,90.90
2023-03-03T02:04:53.239Z,90.80
2023-03-03T02:07:04.378Z,91.20
2023-03-03T02:09:21.510Z,91.50
2023-03-03T02:11:27.231Z,91.10
2023-03-03T02:13:32.133Z,91.50
2023-03-03T02:15:38.635Z,91.60
2023-03-03T02:17:44.010Z,91.50
2023-03-03T02:19:58.414Z,92.10
2023-03-03T02:22:06.334Z,92.20
2023-03-03T02:24:26.981Z,91.90
2023-03-03T02:26:38.992Z,92.60
2023-03-03T02:28:46.738Z,93.10
2023-03-03T02:30:51.885Z,93.60
2023-03-03T02:32:56.776Z,93.40
2023-03-03T02:35:01.687Z,93.60
2023-03-03T02:37:08.259Z,93.80
2023-03-03T02:39:20.978Z,93.60
2023-03-03T02:41:39.395Z,93.60
2023-03-03T02:43:56.308Z,93.40
2023-03-03T02:46:02.828Z,93.40
2023-03-03T02:48:08.629Z,93.50
2023-03-03T02:50:14.719Z,93.50
2023-03-03T02:52:19.599Z,93.40
2023-03-03T02:54:30.585Z,93.20
2023-03-03T02:56:39.312Z,93.30
2023-03-03T02:58:44.640Z,93.30
2023-03-03T03:00:50.784Z,93.30
2023-03-03T03:03:00.446Z,93.40
2023-03-03T03:05:06.124Z,93.30
2023-03-03T03:07:11.877Z,93.20
2023-03-03T03:09:19.013Z,93.30
2023-03-03T03:11:25.428Z,93.30
2023-03-03T03:13:33.120Z,93.30
2023-03-03T03:15:39.290Z,93.20
2023-03-03T03:17:44.622Z,93.10
2023-03-03T03:19:50.614Z,93.10
2023-03-03T03:21:55.538Z,93.10
2023-03-03T03:24:01.137Z,93.10
2023-03-03T03:26:09.986Z,92.80
2023-03-03T03:30:27.357Z,92.90
2023-03-03T03:32:32.704Z,92.90
2023-03-03T03:34:39.043Z,92.90
2023-03-03T03:36:47.324Z,92.70
2023-03-03T03:38:54.353Z,92.70
2023-03-03T03:41:01.116Z,92.80
2023-03-03T03:43:06.076Z,92.90
2023-03-03T03:45:15.336Z,92.90
2023-03-03T03:47:27.052Z,92.90
2023-03-03T03:49:33.275Z,92.80
2023-03-03T03:51:41.650Z,92.80
2023-03-03T03:53:49.874Z,92.90
2023-03-03T03:55:55.289Z,92.80
2023-03-03T03:58:00.441Z,92.90
2023-03-03T04:00:07.747Z,92.80
2023-03-03T04:02:18.800Z,92.80
2023-03-03T04:04:26.797Z,92.70
2023-03-03T04:06:32.505Z,92.70
2023-03-03T04:08:37.665Z,92.70
2023-03-03T04:10:43.140Z,92.80
2023-03-03T04:12:49.756Z,92.70
2023-03-03T04:14:56.006Z,93.00
2023-03-03T04:17:00.983Z,92.80
2023-03-03T04:19:05.998Z,92.60
2023-03-03T04:21:18.534Z,92.60
2023-03-03T04:23:25.587Z,92.70
2023-03-03T04:25:31.760Z,92.70
2023-03-03T04:27:37.756Z,92.90
2023-03-03T04:29:43.849Z,92.80
2023-03-03T04:31:49.744Z,92.80
2023-03-03T04:33:56.953Z,92.80
2023-03-03T04:36:02.645Z,92.80
2023-03-03T04:38:10.924Z,92.80
2023-03-03T04:40:18.311Z,92.80
2023-03-03T04:42:23.247Z,92.70
2023-03-03T04:44:28.664Z,92.80
2023-03-03T04:46:33.782Z,92.70
2023-03-03T04:48:39.677Z,92.70
2023-03-03T04:50:46.341Z,92.70
2023-03-03T04:52:51.741Z,92.70
2023-03-03T04:55:00.241Z,92.70
2023-03-03T04:57:06.395Z,92.50
2023-03-03T04:59:11.861Z,92.70
2023-03-03T05:01:18.629Z,92.50
2023-03-03T05:03:25.662Z,92.60
2023-03-03T05:05:30.606Z,92.40
2023-03-03T05:07:36.249Z,92.30
2023-03-03T05:09:41.287Z,92.10
2023-03-03T05:11:48.751Z,92.10
2023-03-03T05:13:54.153Z,92.20
2023-03-03T05:16:00.143Z,92.30
2023-03-03T05:18:05.203Z,92.40
2023-03-03T05:20:13.889Z,92.30
2023-03-03T05:22:19.008Z,92.30
2023-03-03T05:24:23.996Z,92.20
2023-03-03T05:26:28.998Z,92.30
2023-03-03T05:28:36.839Z,92.20
2023-03-03T05:30:42.136Z,92.40
2023-03-03T05:32:47.481Z,92.30
2023-03-03T05:34:52.603Z,92.50
2023-03-03T05:36:57.866Z,92.50
2023-03-03T05:39:02.792Z,92.50
2023-03-03T05:41:08.264Z,92.50
2023-03-03T05:43:13.576Z,92.50
2023-03-03T05:45:24.309Z,92.40
2023-03-03T05:47:29.603Z,92.40
2023-03-03T05:49:34.927Z,92.30
2023-03-03T05:51:40.104Z,92.10
2023-03-03T05:53:45.815Z,92.10
2023-03-03T05:55:50.692Z,92.20
2023-03-03T05:57:56.336Z,92.20
2023-03-03T06:00:01.291Z,92.10
2023-03-03T06:02:08.802Z,92.10
2023-03-03T06:04:14.389Z,92.00
2023-03-03T06:06:19.336Z,92.00
2023-03-03T06:08:24.330Z,92.00
2023-03-03T06:10:30.275Z,92.10
2023-03-03T06:12:39.173Z,92.10
2023-03-03T06:14:44.130Z,92.10
2023-03-03T06:16:49.073Z,92.00
2023-03-03T06:18:56.632Z,92.00
2023-03-03T06:21:01.665Z,92.00
2023-03-03T06:23:07.233Z,92.10
2023-03-03T06:25:13.765Z,92.10
2023-03-03T06:27:19.879Z,91.90
2023-03-03T06:29:25.052Z,91.80
2023-03-03T06:31:30.731Z,91.50
2023-03-03T06:33:36.217Z,91.60
2023-03-03T06:35:44.742Z,91.80
2023-03-03T06:37:50.961Z,91.90
2023-03-03T06:39:55.927Z,91.70
2023-03-03T06:42:01.035Z,91.70
2023-03-03T06:44:06.175Z,91.70
2023-03-03T06:46:12.511Z,91.80
2023-03-03T06:48:17.475Z,91.80
2023-03-03T06:50:24.616Z,91.70
2023-03-03T06:52:32.354Z,91.80
2023-03-03T06:54:37.503Z,91.80
2023-03-03T06:56:44.969Z,91.60
2023-03-03T06:58:49.958Z,91.40
2023-03-03T07:01:00.013Z,91.40
2023-03-03T07:03:15.429Z,91.30
2023-03-03T07:05:21.836Z,91.30
2023-03-03T07:07:33.410Z,91.30
2023-03-03T07:09:38.543Z,91.30
2023-03-03T07:11:46.589Z,91.10
2023-03-03T07:13:55.876Z,90.90
2023-03-03T07:16:12.766Z,90.80
2023-03-03T07:18:40.381Z,90.60
2023-03-03T07:20:46.899Z,90.50
2023-03-03T07:22:56.033Z,90.50
2023-03-03T07:25:04.932Z,90.30
2023-03-03T07:27:18.765Z,90.30
2023-03-03T07:29:30.638Z,90.30
2023-03-03T07:31:44.618Z,90.60
2023-03-03T07:33:51.231Z,90.60
2023-03-03T07:35:59.397Z,90.60
2023-03-03T07:38:20.359Z,90.40
2023-03-03T07:40:39.554Z,90.40
2023-03-03T07:42:45.945Z,90.30
2023-03-03T07:45:05.644Z,90.20
2023-03-03T07:47:23.732Z,90.40
2023-03-03T07:49:38.326Z,90.20
2023-03-03T07:51:45.156Z,90.50
2023-03-03T07:53:54.926Z,90.40
2023-03-03T07:56:01.022Z,90.30
2023-03-03T07:58:27.093Z,89.90
2023-03-03T08:01:30.331Z,90.00
2023-03-03T08:03:40.230Z,89.30
2023-03-03T08:05:46.891Z,89.50
2023-03-03T08:07:54.546Z,89.60
2023-03-03T08:10:04.454Z,88.70
2023-03-03T08:12:39.023Z,88.20
2023-03-03T08:14:46.366Z,88.10
2023-03-03T08:16:52.318Z,88.20
2023-03-03T08:19:01.703Z,87.80
2023-03-03T08:21:12.049Z,87.60
2023-03-03T08:23:23.202Z,87.90
2023-03-03T08:25:32.284Z,86.70
2023-03-03T08:27:37.700Z,87.40
2023-03-03T08:29:43.103Z,86.90
2023-03-03T08:31:49.558Z,86.20
2023-03-03T08:33:55.106Z,85.60
2023-03-03T08:36:02.118Z,85.90
2023-03-03T08:38:09.331Z,85.40
2023-03-03T08:40:16.072Z,84.20
2023-03-03T08:42:24.613Z,84.60
2023-03-03T08:44:29.959Z,85.50
2023-03-03T08:46:36.266Z,85.30
2023-03-03T08:48:41.607Z,85.00
2023-03-03T08:50:47.322Z,84.40
2023-03-03T08:52:53.035Z,83.30
2023-03-03T08:54:58.520Z,83.50
2023-03-03T08:57:03.430Z,84.00
2023-03-03T08:59:11.557Z,85.20
2023-03-03T09:01:18.323Z,85.80
2023-03-03T09:03:23.259Z,85.70
2023-03-03T09:05:28.952Z,85.80
2023-03-03T09:07:33.969Z,85.40
2023-03-03T09:09:40.485Z,85.20
2023-03-03T09:11:45.376Z,85.60
2023-03-03T09:13:53.599Z,86.10
2023-03-03T09:16:02.009Z,85.90
2023-03-03T09:18:18.697Z,86.00
2023-03-03T09:20:38.232Z,86.10
2023-03-03T09:22:43.197Z,85.00
2023-03-03T09:24:51.169Z,85.60
2023-03-03T09:26:58.599Z,85.20
2023-03-03T09:29:20.932Z,85.50
2023-03-03T09:31:39.312Z,85.90
2023-03-03T09:33:46.999Z,84.80
2023-03-03T09:35:56.699Z,85.20
2023-03-03T09:38:02.287Z,85.60
2023-03-03T09:40:43.048Z,85.50
2023-03-03T09:43:06.161Z,85.10
2023-03-03T09:45:42.470Z,84.60
2023-03-03T09:48:16.471Z,84.10
2023-03-03T09:50:39.017Z,84.10
2023-03-03T09:52:51.631Z,83.60
2023-03-03T09:55:13.699Z,83.10
2023-03-03T09:57:26.374Z,83.80
2023-03-03T09:59:47.489Z,84.80
2023-03-03T10:02:10.855Z,84.20
2023-03-03T10:04:59.946Z,84.10
2023-03-03T10:07:29.084Z,84.00
2023-03-03T10:10:01.188Z,83.50
2023-03-03T10:12:17.470Z,84.70
2023-03-03T10:14:56.084Z,83.30
2023-03-03T10:17:12.423Z,84.10
2023-03-03T10:19:45.704Z,83.70
2023-03-03T10:21:58.432Z,83.90
2023-03-03T10:24:18.488Z,82.60
2023-03-03T10:26:45.604Z,83.00
2023-03-03T10:29:25.464Z,81.50
2023-03-03T10:31:48.607Z,81.70
2023-03-03T10:34:07.034Z,81.20
2023-03-03T10:36:35.024Z,81.70
2023-03-03T10:38:58.622Z,80.30
2023-03-03T10:41:30.110Z,82.00
2023-03-03T10:43:56.963Z,81.10
2023-03-03T10:46:28.439Z,81.00
2023-03-03T10:49:04.942Z,79.70
2023-03-03T10:51:29.306Z,79.20
2023-03-03T10:53:41.507Z,81.50
2023-03-03T10:55:57.808Z,80.70
2023-03-03T10:58:35.399Z,81.10
2023-03-03T11:00:47.390Z,81.30
2023-03-03T11:03:40.812Z,82.10
2023-03-03T11:05:51.004Z,81.40
2023-03-03T11:08:03.262Z,82.40
2023-03-03T11:10:30.953Z,83.40
2023-03-03T11:12:50.241Z,81.70
2023-03-03T11:15:18.390Z,83.00
2023-03-03T11:17:34.514Z,81.70
2023-03-03T11:20:01.179Z,81.30
2023-03-03T11:22:21.266Z,81.70
2023-03-03T11:24:52.361Z,81.70
2023-03-03T11:27:29.537Z,80.30
2023-03-03T11:29:53.513Z,79.70
2023-03-03T11:32:02.520Z,80.20
2023-03-03T11:34:21.957Z,79.50
2023-03-03T11:36:35.212Z,78.70
2023-03-03T11:38:56.611Z,79.10
2023-03-03T11:41:10.270Z,77.60
2023-03-03T11:43:34.107Z,76.70
2023-03-03T11:45:46.692Z,76.90
2023-03-03T11:48:03.569Z,77.00
2023-03-03T11:50:19.051Z,78.20
2023-03-03T11:52:36.422Z,77.90
2023-03-03T11:54:52.186Z,78.70
2023-03-03T11:57:16.892Z,78.30
2023-03-03T11:59:50.667Z,77.00
2023-03-03T12:01:58.673Z,76.20
2023-03-03T12:04:07.147Z,76.30
2023-03-03T12:06:26.452Z,77.30
2023-03-03T12:08:48.233Z,76.70
2023-03-03T12:11:03.882Z,74.50
2023-03-03T12:13:24.270Z,77.80
2023-03-03T12:15:40.184Z,75.00
2023-03-03T12:18:29.127Z,77.60
2023-03-03T12:20:42.566Z,74.50
2023-03-03T12:23:06.412Z,75.10
2023-03-03T12:25:28.145Z,74.70
2023-03-03T12:27:43.082Z,73.10
2023-03-03T12:30:06.392Z,72.10
2023-03-03T12:32:24.592Z,71.60
2023-03-03T12:34:39.968Z,74.50
2023-03-03T12:37:06.760Z,74.30
2023-03-03T12:39:34.045Z,75.50
2023-03-03T12:41:49.088Z,72.70
2023-03-03T12:44:03.680Z,72.30
2023-03-03T12:46:28.467Z,71.50
2023-03-03T12:48:44.108Z,70.90
2023-03-03T12:51:07.154Z,68.50
2023-03-03T12:53:27.193Z,69.60
2023-03-03T12:55:46.433Z,69.50
2023-03-03T12:58:01.653Z,69.30
2023-03-03T13:00:27.323Z,67.60
2023-03-03T13:02:46.393Z,70.70
2023-03-03T13:04:59.988Z,67.60
2023-03-03T13:07:13.937Z,66.30
2023-03-03T13:09:35.429Z,67.90
2023-03-03T13:11:56.582Z,65.90
2023-03-03T13:14:14.393Z,66.00
2023-03-03T13:16:40.676Z,63.50
2023-03-03T13:18:59.164Z,62.80
2023-03-03T13:21:13.537Z,61.00
2023-03-03T13:23:33.934Z,61.90
2023-03-03T13:25:56.266Z,59.40
2023-03-03T13:28:08.840Z,61.40
2023-03-03T13:30:22.994Z,60.60
2023-03-03T13:32:39.731Z,59.50
2023-03-03T13:34:59.085Z,56.70
2023-03-03T13:37:11.067Z,57.10
2023-03-03T13:39:24.890Z,53.60
2023-03-03T13:41:39.100Z,51.50
2023-03-03T13:43:52.370Z,55.10
2023-03-03T13:46:09.427Z,52.90
2023-03-03T13:48:40.236Z,53.90
2023-03-03T13:50:54.348Z,53.20
2023-03-03T13:53:22.890Z,52.70
2023-03-03T13:55:36.070Z,52.60
2023-03-03T13:58:03.007Z,50.40
2023-03-03T14:00:23.739Z,52.00
2023-03-03T14:03:11.493Z,51.30
2023-03-03T14:05:20.287Z,57.40
2023-03-03T14:07:37.049Z,57.00
2023-03-03T14:09:56.949Z,56.90
2023-03-03T14:12:12.030Z,53.70
2023-03-03T14:14:40.168Z,51.10
2023-03-03T14:16:54.511Z,49.40
2023-03-03T14:19:05.350Z,48.60
2023-03-03T14:21:17.524Z,47.20
2023-03-03T14:23:34.043Z,48.50
2023-03-03T14:25:59.166Z,48.70
2023-03-03T14:28:14.150Z,48.70
2023-03-03T14:30:36.226Z,49.60
2023-03-03T14:32:45.605Z,50.90
2023-03-03T14:35:01.334Z,49.60
2023-03-03T14:37:26.494Z,46.30
2023-03-03T14:39:38.865Z,48.40
2023-03-03T14:41:45.564Z,46.40
2023-03-03T14:44:02.737Z,45.50
2023-03-03T14:46:41.937Z,48.80
2023-03-03T14:48:55.157Z,47.50
2023-03-03T14:51:04.779Z,46.60
2023-03-03T14:53:22.853Z,48.10
2023-03-03T14:55:42.222Z,48.90
2023-03-03T14:57:48.973Z,48.50
2023-03-03T15:00:11.020Z,48.50
2023-03-03T15:02:37.673Z,52.60
2023-03-03T15:04:43.224Z,49.90
2023-03-03T15:06:51.199Z,50.80
2023-03-03T15:08:56.573Z,47.90
2023-03-03T15:11:23.080Z,50.30
2023-03-03T15:13:37.935Z,50.00
2023-03-03T15:15:55.165Z,49.80
2023-03-03T15:18:04.550Z,50.80
2023-03-03T15:20:45.250Z,51.90
2023-03-03T15:22:53.756Z,48.00
2023-03-03T15:25:06.832Z,51.70
2023-03-03T15:27:21.995Z,52.40
2023-03-03T15:29:33.229Z,53.20
2023-03-03T15:31:47.396Z,52.90
2023-03-03T15:34:12.828Z,52.20
2023-03-03T15:36:29.429Z,53.20
2023-03-03T15:38:52.848Z,52.90
2023-03-03T15:41:11.484Z,50.40
2023-03-03T15:43:29.910Z,53.40
2023-03-03T15:45:41.502Z,50.50
2023-03-03T15:48:19.449Z,51.10
2023-03-03T15:50:48.449Z,51.50
2023-03-03T15:53:05.496Z,53.00
2023-03-03T15:55:30.640Z,49.70
2023-03-03T15:57:50.821Z,52.30
2023-03-03T16:00:16.252Z,51.50
2023-03-03T16:02:25.144Z,51.10
2023-03-03T16:04:37.340Z,50.70
2023-03-03T16:06:52.928Z,50.70
2023-03-03T16:09:05.469Z,50.80
2023-03-03T16:11:18.927Z,50.70
2023-03-03T16:13:35.336Z,48.90
2023-03-03T16:16:07.924Z,50.40
2023-03-03T16:18:26.056Z,47.80
2023-03-03T16:20:40.668Z,48.00
2023-03-03T16:23:04.241Z,49.10
2023-03-03T16:25:28.371Z,50.00
2023-03-03T16:27:38.385Z,50.30
2023-03-03T16:32:27.205Z,49.80
2023-03-03T16:34:40.424Z,49.60
2023-03-03T16:37:03.357Z,50.20
2023-03-03T16:39:14.219Z,50.70
2023-03-03T16:41:29.600Z,50.80
2023-03-03T16:43:47.118Z,53.10
2023-03-03T16:45:52.539Z,53.90
2023-03-03T16:48:25.877Z,56.00
2023-03-03T16:50:44.416Z,56.90
2023-03-03T16:53:00.685Z,58.50
2023-03-03T16:55:15.742Z,58.80
2023-03-03T16:57:30.551Z,60.20
2023-03-03T16:59:49.287Z,60.60
2023-03-03T17:02:04.202Z,61.60
2023-03-03T17:04:21.600Z,62.30
2023-03-03T17:06:41.116Z,62.70
2023-03-03T17:09:32.148Z,64.00
2023-03-03T17:12:01.185Z,64.60
2023-03-03T17:14:34.887Z,66.00
2023-03-03T17:16:52.612Z,66.90
2023-03-03T17:19:12.445Z,68.00
2023-03-03T17:21:32.014Z,68.20
2023-03-03T17:23:52.796Z,68.90
2023-03-03T17:26:12.658Z,70.40
2023-03-03T17:28:37.328Z,70.40
2023-03-03T17:30:49.599Z,71.20
2023-03-03T17:33:15.993Z,71.30
2023-03-03T17:35:38.737Z,72.50
2023-03-03T17:40:16.684Z,72.70
2023-03-03T17:42:34.654Z,73.00
2023-03-03T17:44:47.313Z,73.80
2023-03-03T17:46:56.786Z,73.30
2023-03-03T17:49:38.633Z,74.40
2023-03-03T17:52:34.603Z,74.60
2023-03-03T17:55:14.777Z,75.50
2023-03-03T17:57:41.207Z,77.40
2023-03-03T18:00:06.047Z,77.20
2023-03-03T18:03:22.290Z,77.10
2023-03-03T18:05:58.306Z,76.60
2023-03-03T18:08:20.791Z,77.70
2023-03-03T18:11:13.394Z,78.40
2023-03-03T18:16:12.465Z,79.00
2023-03-03T18:18:44.176Z,79.10
2023-03-03T18:21:05.561Z,79.60
2023-03-03T18:23:35.166Z,80.00
2023-03-03T18:25:58.711Z,80.20
2023-03-03T18:28:25.797Z,81.30
2023-03-03T18:30:35.291Z,80.40
2023-03-03T18:32:48.209Z,80.50
2023-03-03T18:35:25.871Z,81.30
2023-03-03T18:37:42.949Z,81.60
2023-03-03T18:39:50.141Z,82.00
2023-03-03T18:42:37.736Z,82.50
2023-03-03T18:44:48.315Z,83.20
2023-03-03T18:46:58.887Z,84.00
2023-03-03T18:49:09.091Z,83.20
2023-03-03T18:51:14.046Z,84.40
2023-03-03T18:53:30.034Z,84.40
2023-03-03T18:55:43.578Z,84.80
2023-03-03T18:58:33.354Z,84.30
2023-03-03T19:00:55.074Z,84.30
2023-03-03T19:03:02.506Z,84.10
2023-03-03T19:05:23.417Z,86.00
2023-03-03T19:07:32.104Z,85.90
2023-03-03T19:09:57.312Z,85.80
2023-03-03T19:12:02.495Z,86.30
2023-03-03T19:14:34.284Z,86.00
2023-03-03T19:16:42.467Z,85.50
2023-03-03T19:19:07.252Z,87.20
2023-03-03T19:21:25.064Z,85.10
2023-03-03T19:23:59.833Z,84.70
2023-03-03T19:26:38.742Z,86.70
2023-03-03T19:28:52.320Z,87.30
2023-03-03T19:31:00.664Z,86.20
2023-03-03T19:33:45.620Z,87.00
2023-03-03T19:36:42.717Z,87.50
2023-03-03T19:39:05.245Z,87.50
2023-03-03T19:41:26.857Z,87.20
2023-03-03T19:43:46.426Z,87.90
2023-03-03T19:46:06.142Z,86.80
2023-03-03T19:48:29.749Z,87.60
2023-03-03T19:50:52.505Z,88.20
2023-03-03T19:53:10.362Z,87.00
2023-03-03T19:55:29.117Z,88.60
2023-03-03T19:57:48.891Z,87.70
2023-03-03T20:00:01.118Z,87.30
2023-03-03T20:02:39.902Z,88.00
2023-03-03T20:05:13.222Z,87.50
2023-03-03T20:07:31.349Z,87.80
2023-03-03T20:09:44.614Z,88.70
2023-03-03T20:12:04.814Z,88.00
2023-03-03T20:14:32.057Z,88.20
2023-03-03T20:16:42.821Z,88.10
2023-03-03T20:19:23.065Z,87.90
2023-03-03T20:21:46.840Z,88.20
2023-03-03T20:24:07.547Z,88.90
2023-03-03T20:26:25.121Z,89.10
2023-03-03T20:29:07.419Z,88.50
2023-03-03T20:31:22.412Z,89.50
2023-03-03T20:33:48.439Z,89.00
2023-03-03T20:36:07.145Z,89.80
2023-03-03T20:38:25.754Z,90.10
2023-03-03T20:40:38.579Z,89.60
2023-03-03T20:42:54.844Z,90.90
2023-03-03T20:45:32.629Z,89.80
2023-03-03T20:47:51.891Z,90.40
2023-03-03T20:50:19.641Z,89.90
2023-03-03T20:52:38.661Z,89.70
2023-03-03T20:54:54.674Z,90.10
2023-03-03T20:57:09.840Z,90.00
2023-03-03T20:59:26.908Z,89.90
2023-03-03T21:01:43.409Z,89.20
2023-03-03T21:03:48.672Z,89.50
2023-03-03T21:06:01.139Z,90.10
2023-03-03T21:08:08.521Z,90.50
2023-03-03T21:10:24.030Z,90.50
2023-03-03T21:12:33.375Z,90.60
2023-03-03T21:14:39.541Z,91.20
2023-03-03T21:16:44.595Z,90.60
2023-03-03T21:19:00.249Z,90.10
2023-03-03T21:21:06.359Z,90.30
2023-03-03T21:23:13.092Z,90.00
2023-03-03T21:25:52.099Z,90.30
2023-03-03T21:28:16.073Z,90.20
2023-03-03T21:30:21.912Z,90.40
2023-03-03T21:32:40.405Z,91.20
2023-03-03T21:34:45.906Z,91.90
2023-03-03T21:36:52.229Z,91.80
2023-03-03T21:38:59.082Z,91.40
2023-03-03T21:41:07.946Z,91.80
2023-03-03T21:43:36.232Z,91.80
2023-03-03T21:45:42.331Z,91.60
2023-03-03T21:47:47.363Z,91.60
2023-03-03T21:49:54.281Z,91.40
2023-03-03T21:52:01.462Z,91.30
2023-03-03T21:54:07.008Z,91.10
2023-03-03T21:56:15.757Z,90.90
2023-03-03T21:58:20.792Z,90.80
2023-03-03T22:00:26.996Z,91.00
2023-03-03T22:02:34.781Z,90.90
2023-03-03T22:04:41.081Z,90.90
2023-03-03T22:06:46.399Z,90.60
2023-03-03T22:08:51.339Z,90.30
2023-03-03T22:10:56.652Z,90.00
2023-03-03T22:13:05.010Z,89.90
2023-03-03T22:15:11.151Z,89.80
2023-03-03T22:17:16.462Z,89.80
2023-03-03T22:19:21.478Z,89.80
2023-03-03T22:21:26.803Z,89.80
2023-03-03T22:23:32.113Z,89.70
2023-03-03T22:25:37.050Z,89.40
2023-03-03T22:27:42.369Z,89.70
2023-03-03T22:29:49.954Z,89.60
2023-03-03T22:31:57.272Z,89.40
2023-03-03T22:34:02.488Z,89.40
2023-03-03T22:36:08.779Z,89.20
2023-03-03T22:38:13.720Z,89.10
2023-03-03T22:40:19.282Z,89.20
2023-03-03T22:42:25.099Z,89.30
2023-03-03T22:44:30.004Z,89.30
2023-03-03T22:46:37.586Z,89.20
2023-03-03T22:48:42.814Z,89.30
2023-03-03T22:50:47.767Z,89.20
2023-03-03T22:52:54.900Z,89.10
2023-03-03T22:55:00.443Z,89.20
2023-03-03T22:57:06.039Z,88.80
2023-03-03T22:59:11.091Z,89.20
2023-03-03T23:01:16.055Z,89.40
2023-03-03T23:03:23.902Z,89.20
2023-03-03T23:05:29.906Z,89.50
2023-03-03T23:07:35.728Z,89.60
2023-03-03T23:09:40.661Z,89.40
2023-03-03T23:11:46.281Z,89.60
2023-03-03T23:13:51.311Z,89.20
2023-03-03T23:16:00.469Z,89.40
2023-03-03T23:18:05.877Z,89.20
2023-03-03T23:20:16.564Z,89.00
2023-03-03T23:22:22.206Z,88.90
2023-03-03T23:24:28.000Z,88.70
2023-03-03T23:26:33.457Z,88.90
2023-03-03T23:28:38.922Z,88.90
2023-03-03T23:30:43.956Z,88.90
2023-03-03T23:32:50.338Z,88.80
2023-03-03T23:34:56.366Z,88.60
2023-03-03T23:37:04.263Z,88.50
2023-03-03T23:39:12.217Z,88.40
2023-03-03T23:41:20.749Z,88.40
2023-03-03T23:43:25.761Z,88.30
2023-03-03T23:45:30.812Z,88.10
2023-03-03T23:47:39.035Z,87.90
2023-03-03T23:51:51.273Z,87.90
2023-03-03T23:53:59.666Z,87.60
2023-03-03T23:56:04.808Z,87.90
2023-03-03T23:58:11.270Z,88.00
